sensor_id;sensor_type;location;lat;lon;timestamp;pressure;altitude;pressure_sealevel;temperature;humidity
818;BME280;391;51.052;6.954;2023-02-11T00:01:28;102845.50;;;7.87;77.21
818;BME280;391;51.052;6.954;2023-02-11T00:03:31;102839.63;;;7.78;77.46
818;BME280;391;51.052;6.954;2023-02-11T00:05:35;102837.47;;;7.84;77.35
818;BME280;391;51.052;6.954;2023-02-11T00:07:38;102841.66;;;7.94;77.30
818;BME280;391;51.052;6.954;2023-02-11T00:09:42;102839.50;;;8.00;77.03
818;BME280;391;51.052;6.954;2023-02-11T00:11:45;102837.31;;;7.94;77.10
818;BME280;391;51.052;6.954;2023-02-11T00:13:50;102836.44;;;7.94;76.99
818;BME280;391;51.052;6.954;2023-02-11T00:15:53;102828.88;;;7.85;77.01
818;BME280;391;51.052;6.954;2023-02-11T00:17:57;102833.75;;;7.81;77.10
818;BME280;391;51.052;6.954;2023-02-11T00:20:00;102836.09;;;7.89;76.87
818;BME280;391;51.052;6.954;2023-02-11T00:22:04;102815.78;;;7.84;76.84
818;BME280;391;51.052;6.954;2023-02-11T00:24:07;102826.63;;;7.90;76.76
818;BME280;391;51.052;6.954;2023-02-11T00:26:11;102788.81;;;7.70;77.02
818;BME280;391;51.052;6.954;2023-02-11T00:28:16;102811.84;;;7.66;76.94
818;BME280;391;51.052;6.954;2023-02-11T00:30:21;102827.97;;;7.73;77.04
818;BME280;391;51.052;6.954;2023-02-11T00:32:25;102827.53;;;7.56;77.99
818;BME280;391;51.052;6.954;2023-02-11T00:34:28;102831.59;;;7.64;78.07
818;BME280;391;51.052;6.954;2023-02-11T00:36:31;102821.31;;;7.77;77.51
818;BME280;391;51.052;6.954;2023-02-11T00:38:35;102823.56;;;7.61;78.06
818;BME280;391;51.052;6.954;2023-02-11T00:40:38;102776.72;;;7.47;77.84
818;BME280;391;51.052;6.954;2023-02-11T00:42:42;102817.50;;;7.72;78.01
818;BME280;391;51.052;6.954;2023-02-11T00:44:45;102814.00;;;7.71;77.65
818;BME280;391;51.052;6.954;2023-02-11T00:46:52;102805.66;;;7.75;77.67
818;BME280;391;51.052;6.954;2023-02-11T00:48:56;102803.25;;;7.67;77.60
818;BME280;391;51.052;6.954;2023-02-11T00:50:59;102788.69;;;7.57;78.18
818;BME280;391;51.052;6.954;2023-02-11T00:53:03;102795.25;;;7.64;78.14
818;BME280;391;51.052;6.954;2023-02-11T00:55:07;102795.44;;;7.43;78.86
818;BME280;391;51.052;6.954;2023-02-11T00:57:10;102793.91;;;7.45;79.11
818;BME280;391;51.052;6.954;2023-02-11T00:59:14;102793.44;;;7.51;79.03
818;BME280;391;51.052;6.954;2023-02-11T01:01:18;102801.47;;;7.66;78.72
818;BME280;391;51.052;6.954;2023-02-11T01:03:23;102801.78;;;7.70;78.64
818;BME280;391;51.052;6.954;2023-02-11T01:05:26;102804.72;;;7.75;78.16
818;BME280;391;51.052;6.954;2023-02-11T01:07:30;102802.00;;;7.73;78.23
818;BME280;391;51.052;6.954;2023-02-11T01:09:33;102809.81;;;7.73;78.26
818;BME280;391;51.052;6.954;2023-02-11T01:11:40;102803.72;;;7.61;78.45
818;BME280;391;51.052;6.954;2023-02-11T01:13:44;102802.56;;;7.69;78.18
818;BME280;391;51.052;6.954;2023-02-11T01:15:47;102808.66;;;7.70;78.35
818;BME280;391;51.052;6.954;2023-02-11T01:17:51;102811.63;;;7.74;78.17
818;BME280;391;51.052;6.954;2023-02-11T01:19:56;102803.38;;;7.80;77.98
818;BME280;391;51.052;6.954;2023-02-11T01:22:00;102812.97;;;7.81;77.87
818;BME280;391;51.052;6.954;2023-02-11T01:24:03;102806.97;;;7.82;77.91
818;BME280;391;51.052;6.954;2023-02-11T01:26:07;102808.78;;;7.83;77.82
818;BME280;391;51.052;6.954;2023-02-11T01:28:15;102802.13;;;7.63;78.24
818;BME280;391;51.052;6.954;2023-02-11T01:30:19;102751.34;;;7.32;78.53
818;BME280;391;51.052;6.954;2023-02-11T01:32:22;102805.88;;;7.55;78.42
818;BME280;391;51.052;6.954;2023-02-11T01:34:28;102797.63;;;7.49;79.16
818;BME280;391;51.052;6.954;2023-02-11T01:36:32;102810.81;;;7.52;79.03
818;BME280;391;51.052;6.954;2023-02-11T01:38:36;102813.06;;;7.47;78.98
818;BME280;391;51.052;6.954;2023-02-11T01:40:46;102814.44;;;7.42;79.55
818;BME280;391;51.052;6.954;2023-02-11T01:42:50;102815.88;;;7.51;79.07
818;BME280;391;51.052;6.954;2023-02-11T01:44:54;102815.66;;;7.47;79.12
818;BME280;391;51.052;6.954;2023-02-11T01:46:59;102823.34;;;7.58;79.09
818;BME280;391;51.052;6.954;2023-02-11T01:49:08;102831.13;;;7.58;79.05
818;BME280;391;51.052;6.954;2023-02-11T01:51:15;102826.72;;;7.57;78.88
818;BME280;391;51.052;6.954;2023-02-11T01:53:22;102817.03;;;7.54;79.21
818;BME280;391;51.052;6.954;2023-02-11T01:55:43;102811.94;;;7.44;79.44
818;BME280;391;51.052;6.954;2023-02-11T01:58:04;102816.56;;;7.36;79.29
818;BME280;391;51.052;6.954;2023-02-11T02:00:11;102814.44;;;7.42;79.39
818;BME280;391;51.052;6.954;2023-02-11T02:02:21;102817.81;;;7.41;79.42
818;BME280;391;51.052;6.954;2023-02-11T02:04:28;102813.97;;;7.36;79.45
818;BME280;391;51.052;6.954;2023-02-11T02:06:39;102807.09;;;7.37;79.55
818;BME280;391;51.052;6.954;2023-02-11T02:08:50;102771.75;;;7.16;79.64
818;BME280;391;51.052;6.954;2023-02-11T02:10:56;102797.72;;;7.27;79.85
818;BME280;391;51.052;6.954;2023-02-11T02:13:01;102785.63;;;7.16;79.96
818;BME280;391;51.052;6.954;2023-02-11T02:15:17;102798.59;;;7.16;80.31
818;BME280;391;51.052;6.954;2023-02-11T02:17:27;102802.88;;;7.16;80.54
818;BME280;391;51.052;6.954;2023-02-11T02:19:58;102810.66;;;7.16;80.75
818;BME280;391;51.052;6.954;2023-02-11T02:27:35;102801.41;;;7.31;80.63
818;BME280;391;51.052;6.954;2023-02-11T02:35:30;102793.63;;;7.19;80.27
818;BME280;391;51.052;6.954;2023-02-11T02:37:37;102797.78;;;7.06;81.01
818;BME280;391;51.052;6.954;2023-02-11T02:39:44;102795.94;;;6.93;81.98
818;BME280;391;51.052;6.954;2023-02-11T02:41:51;102776.63;;;6.78;82.14
818;BME280;391;51.052;6.954;2023-02-11T02:43:55;102744.34;;;6.63;82.39
818;BME280;391;51.052;6.954;2023-02-11T02:46:10;102752.69;;;6.59;84.21
818;BME280;391;51.052;6.954;2023-02-11T02:48:25;102754.34;;;6.58;84.20
818;BME280;391;51.052;6.954;2023-02-11T02:50:34;102744.47;;;6.64;83.38
818;BME280;391;51.052;6.954;2023-02-11T02:52:45;102780.66;;;6.74;83.65
818;BME280;391;51.052;6.954;2023-02-11T02:55:13;102767.84;;;6.87;83.36
818;BME280;391;51.052;6.954;2023-02-11T02:57:29;102766.03;;;6.86;83.29
818;BME280;391;51.052;6.954;2023-02-11T02:59:42;102753.44;;;6.91;83.19
818;BME280;391;51.052;6.954;2023-02-11T03:01:56;102749.63;;;6.98;83.12
818;BME280;391;51.052;6.954;2023-02-11T03:04:11;102731.69;;;6.89;82.84
818;BME280;391;51.052;6.954;2023-02-11T03:06:27;102757.09;;;7.05;82.99
818;BME280;391;51.052;6.954;2023-02-11T03:08:37;102756.97;;;7.03;82.75
818;BME280;391;51.052;6.954;2023-02-11T03:10:45;102747.78;;;6.85;83.00
818;BME280;391;51.052;6.954;2023-02-11T03:12:50;102752.63;;;6.80;83.96
818;BME280;391;51.052;6.954;2023-02-11T03:14:56;102755.13;;;6.79;84.12
818;BME280;391;51.052;6.954;2023-02-11T03:17:03;102764.59;;;6.90;83.83
818;BME280;391;51.052;6.954;2023-02-11T03:19:11;102761.13;;;7.01;83.43
818;BME280;391;51.052;6.954;2023-02-11T03:21:16;102761.59;;;7.07;82.98
818;BME280;391;51.052;6.954;2023-02-11T03:23:25;102762.38;;;6.95;83.69
818;BME280;391;51.052;6.954;2023-02-11T03:25:34;102760.09;;;6.99;83.66
818;BME280;391;51.052;6.954;2023-02-11T03:27:42;102763.28;;;6.95;83.48
818;BME280;391;51.052;6.954;2023-02-11T03:29:51;102711.94;;;6.79;83.17
818;BME280;391;51.052;6.954;2023-02-11T03:32:00;102755.59;;;6.97;83.43
818;BME280;391;51.052;6.954;2023-02-11T03:34:08;102753.66;;;6.82;83.86
818;BME280;391;51.052;6.954;2023-02-11T03:36:19;102738.97;;;6.83;84.10
818;BME280;391;51.052;6.954;2023-02-11T03:38:28;102718.91;;;6.69;83.99
818;BME280;391;51.052;6.954;2023-02-11T03:40:35;102724.22;;;6.82;84.39
818;BME280;391;51.052;6.954;2023-02-11T03:42:42;102721.81;;;6.73;84.65
818;BME280;391;51.052;6.954;2023-02-11T03:44:49;102682.84;;;6.60;84.17
818;BME280;391;51.052;6.954;2023-02-11T03:46:54;102716.47;;;6.82;84.38
818;BME280;391;51.052;6.954;2023-02-11T03:49:01;102732.16;;;6.95;83.97
818;BME280;391;51.052;6.954;2023-02-11T03:51:07;102735.06;;;6.88;83.46
818;BME280;391;51.052;6.954;2023-02-11T03:53:12;102741.16;;;7.00;83.69
818;BME280;391;51.052;6.954;2023-02-11T03:55:19;102743.66;;;7.10;83.52
818;BME280;391;51.052;6.954;2023-02-11T03:57:26;102757.66;;;7.24;83.17
818;BME280;391;51.052;6.954;2023-02-11T03:59:30;102752.81;;;7.28;82.69
818;BME280;391;51.052;6.954;2023-02-11T04:01:33;102759.69;;;7.28;82.51
818;BME280;391;51.052;6.954;2023-02-11T04:03:37;102766.13;;;7.33;82.37
818;BME280;391;51.052;6.954;2023-02-11T04:05:40;102768.41;;;7.40;82.22
818;BME280;391;51.052;6.954;2023-02-11T04:07:44;102764.78;;;7.38;81.89
818;BME280;391;51.052;6.954;2023-02-11T04:09:47;102765.00;;;7.41;81.84
818;BME280;391;51.052;6.954;2023-02-11T04:11:52;102759.34;;;7.35;81.47
818;BME280;391;51.052;6.954;2023-02-11T04:13:55;102754.94;;;7.22;81.77
818;BME280;391;51.052;6.954;2023-02-11T04:15:59;102749.44;;;7.29;82.06
818;BME280;391;51.052;6.954;2023-02-11T04:18:03;102711.84;;;7.13;81.62
818;BME280;391;51.052;6.954;2023-02-11T04:20:07;102740.63;;;7.16;81.42
818;BME280;391;51.052;6.954;2023-02-11T04:22:10;102730.56;;;7.09;82.02
818;BME280;391;51.052;6.954;2023-02-11T04:24:14;102727.53;;;7.03;82.40
818;BME280;391;51.052;6.954;2023-02-11T04:26:17;102741.28;;;7.02;82.30
818;BME280;391;51.052;6.954;2023-02-11T04:28:22;102721.88;;;6.85;83.54
818;BME280;391;51.052;6.954;2023-02-11T04:30:25;102731.34;;;6.96;82.99
818;BME280;391;51.052;6.954;2023-02-11T04:32:30;102724.84;;;7.01;83.03
818;BME280;391;51.052;6.954;2023-02-11T04:34:33;102716.69;;;6.85;82.67
818;BME280;391;51.052;6.954;2023-02-11T04:36:37;102724.91;;;6.91;83.75
818;BME280;391;51.052;6.954;2023-02-11T04:38:40;102725.75;;;7.02;83.55
818;BME280;391;51.052;6.954;2023-02-11T04:40:43;102722.19;;;6.89;83.84
818;BME280;391;51.052;6.954;2023-02-11T04:42:47;102730.47;;;7.07;83.60
818;BME280;391;51.052;6.954;2023-02-11T04:44:52;102724.47;;;6.85;83.97
818;BME280;391;51.052;6.954;2023-02-11T04:46:55;102722.41;;;6.81;84.55
818;BME280;391;51.052;6.954;2023-02-11T04:48:59;102723.91;;;7.01;83.88
818;BME280;391;51.052;6.954;2023-02-11T04:51:02;102667.38;;;6.73;83.44
818;BME280;391;51.052;6.954;2023-02-11T04:53:06;102720.41;;;7.00;83.84
818;BME280;391;51.052;6.954;2023-02-11T04:55:10;102720.09;;;7.07;83.23
818;BME280;391;51.052;6.954;2023-02-11T04:57:14;102724.59;;;7.10;83.20
818;BME280;391;51.052;6.954;2023-02-11T04:59:17;102694.63;;;7.02;83.31
818;BME280;391;51.052;6.954;2023-02-11T05:01:22;102730.72;;;7.33;82.80
818;BME280;391;51.052;6.954;2023-02-11T05:03:25;102727.69;;;7.27;82.79
818;BME280;391;51.052;6.954;2023-02-11T05:05:29;102739.28;;;7.32;82.55
818;BME280;391;51.052;6.954;2023-02-11T05:07:32;102736.13;;;7.36;82.56
818;BME280;391;51.052;6.954;2023-02-11T05:09:36;102693.03;;;7.15;82.40
818;BME280;391;51.052;6.954;2023-02-11T05:11:39;102634.50;;;6.84;82.23
818;BME280;391;51.052;6.954;2023-02-11T05:13:43;102741.09;;;7.45;82.27
818;BME280;391;51.052;6.954;2023-02-11T05:15:46;102727.09;;;7.43;82.29
818;BME280;391;51.052;6.954;2023-02-11T05:17:51;102720.13;;;7.30;82.44
818;BME280;391;51.052;6.954;2023-02-11T05:19:55;102728.22;;;7.35;82.90
818;BME280;391;51.052;6.954;2023-02-11T05:21:58;102728.56;;;7.39;82.59
818;BME280;391;51.052;6.954;2023-02-11T05:24:05;102730.13;;;7.37;82.76
818;BME280;391;51.052;6.954;2023-02-11T05:26:09;102694.38;;;7.10;82.69
818;BME280;391;51.052;6.954;2023-02-11T05:28:13;102738.34;;;7.43;82.91
818;BME280;391;51.052;6.954;2023-02-11T05:30:16;102734.44;;;7.37;83.12
818;BME280;391;51.052;6.954;2023-02-11T05:32:20;102728.66;;;7.41;82.87
818;BME280;391;51.052;6.954;2023-02-11T05:34:25;102723.03;;;7.35;83.38
818;BME280;391;51.052;6.954;2023-02-11T05:36:29;102630.13;;;6.95;83.42
818;BME280;391;51.052;6.954;2023-02-11T05:38:35;102732.38;;;7.44;83.56
818;BME280;391;51.052;6.954;2023-02-11T05:40:39;102729.13;;;7.35;83.48
818;BME280;391;51.052;6.954;2023-02-11T05:42:42;102727.66;;;7.39;83.90
818;BME280;391;51.052;6.954;2023-02-11T05:44:46;102730.28;;;7.27;84.11
818;BME280;391;51.052;6.954;2023-02-11T05:46:51;102731.59;;;7.34;84.26
818;BME280;391;51.052;6.954;2023-02-11T05:48:55;102729.66;;;6.97;86.43
818;BME280;391;51.052;6.954;2023-02-11T05:51:00;102732.94;;;7.06;86.49
818;BME280;391;51.052;6.954;2023-02-11T05:53:03;102724.59;;;6.98;87.00
818;BME280;391;51.052;6.954;2023-02-11T05:55:08;102726.84;;;7.05;87.12
818;BME280;391;51.052;6.954;2023-02-11T05:57:11;102717.38;;;6.94;87.76
818;BME280;391;51.052;6.954;2023-02-11T05:59:15;102705.72;;;6.77;88.71
818;BME280;391;51.052;6.954;2023-02-11T06:01:18;102698.41;;;6.83;89.10
818;BME280;391;51.052;6.954;2023-02-11T06:03:21;102702.72;;;6.95;88.98
818;BME280;391;51.052;6.954;2023-02-11T06:05:25;102701.47;;;6.89;89.02
818;BME280;391;51.052;6.954;2023-02-11T06:07:30;102700.69;;;6.90;88.96
818;BME280;391;51.052;6.954;2023-02-11T06:09:33;102701.25;;;6.98;88.97
818;BME280;391;51.052;6.954;2023-02-11T06:11:37;102693.00;;;6.80;89.92
818;BME280;391;51.052;6.954;2023-02-11T06:13:40;102692.91;;;6.79;90.21
818;BME280;391;51.052;6.954;2023-02-11T06:15:44;102702.94;;;6.86;90.40
818;BME280;391;51.052;6.954;2023-02-11T06:17:47;102701.50;;;7.01;89.88
818;BME280;391;51.052;6.954;2023-02-11T06:19:50;102703.84;;;7.10;89.56
818;BME280;391;51.052;6.954;2023-02-11T06:21:54;102708.59;;;7.15;89.19
818;BME280;391;51.052;6.954;2023-02-11T06:23:59;102713.00;;;7.16;89.12
818;BME280;391;51.052;6.954;2023-02-11T06:26:04;102681.28;;;6.97;89.64
818;BME280;391;51.052;6.954;2023-02-11T06:28:08;102704.75;;;7.10;89.50
818;BME280;391;51.052;6.954;2023-02-11T06:30:12;102702.81;;;6.84;90.63
818;BME280;391;51.052;6.954;2023-02-11T06:32:16;102699.78;;;6.90;90.82
818;BME280;391;51.052;6.954;2023-02-11T06:34:40;102705.78;;;7.01;90.59
818;BME280;391;51.052;6.954;2023-02-11T06:36:43;102700.13;;;7.06;90.34
818;BME280;391;51.052;6.954;2023-02-11T06:38:47;102711.50;;;6.97;90.65
818;BME280;391;51.052;6.954;2023-02-11T06:40:52;102698.91;;;7.01;90.82
818;BME280;391;51.052;6.954;2023-02-11T06:42:55;102692.13;;;6.91;90.98
818;BME280;391;51.052;6.954;2023-02-11T06:44:59;102703.16;;;6.89;90.79
818;BME280;391;51.052;6.954;2023-02-11T06:47:02;102715.59;;;7.05;90.82
818;BME280;391;51.052;6.954;2023-02-11T06:49:06;102715.13;;;7.10;90.84
818;BME280;391;51.052;6.954;2023-02-11T06:51:10;102726.41;;;7.11;90.47
818;BME280;391;51.052;6.954;2023-02-11T06:53:14;102719.59;;;6.89;91.36
818;BME280;391;51.052;6.954;2023-02-11T06:55:18;102723.56;;;6.96;91.53
818;BME280;391;51.052;6.954;2023-02-11T06:57:23;102731.03;;;7.03;91.29
818;BME280;391;51.052;6.954;2023-02-11T06:59:26;102731.38;;;7.08;91.23
818;BME280;391;51.052;6.954;2023-02-11T07:01:30;102642.00;;;6.58;91.08
818;BME280;391;51.052;6.954;2023-02-11T07:03:34;102744.66;;;7.12;91.01
818;BME280;391;51.052;6.954;2023-02-11T07:05:41;102733.03;;;6.96;91.79
818;BME280;391;51.052;6.954;2023-02-11T07:07:44;102728.31;;;7.02;91.92
818;BME280;391;51.052;6.954;2023-02-11T07:09:48;102727.28;;;7.00;91.87
818;BME280;391;51.052;6.954;2023-02-11T07:11:51;102728.75;;;6.96;92.19
818;BME280;391;51.052;6.954;2023-02-11T07:14:01;102727.66;;;7.04;92.45
818;BME280;391;51.052;6.954;2023-02-11T07:16:05;102732.47;;;7.00;92.61
818;BME280;391;51.052;6.954;2023-02-11T07:18:08;102728.66;;;6.95;92.78
818;BME280;391;51.052;6.954;2023-02-11T07:20:15;102723.47;;;6.95;92.85
818;BME280;391;51.052;6.954;2023-02-11T07:22:19;102733.47;;;6.78;93.47
818;BME280;391;51.052;6.954;2023-02-11T07:24:22;102729.97;;;6.89;93.98
818;BME280;391;51.052;6.954;2023-02-11T07:26:26;102735.16;;;6.89;94.00
818;BME280;391;51.052;6.954;2023-02-11T07:28:30;102745.41;;;6.76;94.37
818;BME280;391;51.052;6.954;2023-02-11T07:30:35;102746.44;;;6.90;94.37
818;BME280;391;51.052;6.954;2023-02-11T07:32:38;102747.56;;;6.82;94.49
818;BME280;391;51.052;6.954;2023-02-11T07:34:42;102751.72;;;6.80;94.56
818;BME280;391;51.052;6.954;2023-02-11T07:36:45;102749.41;;;6.95;94.51
818;BME280;391;51.052;6.954;2023-02-11T07:38:50;102754.91;;;6.99;94.41
818;BME280;391;51.052;6.954;2023-02-11T07:40:53;102757.63;;;6.89;94.49
818;BME280;391;51.052;6.954;2023-02-11T07:42:57;102720.28;;;6.87;93.87
818;BME280;391;51.052;6.954;2023-02-11T07:45:00;102750.09;;;7.04;94.33
818;BME280;391;51.052;6.954;2023-02-11T07:47:05;102752.53;;;7.02;94.15
818;BME280;391;51.052;6.954;2023-02-11T07:49:09;102753.50;;;7.14;94.08
818;BME280;391;51.052;6.954;2023-02-11T07:51:14;102755.38;;;7.05;93.71
818;BME280;391;51.052;6.954;2023-02-11T07:53:17;102755.63;;;7.08;94.06
818;BME280;391;51.052;6.954;2023-02-11T07:55:21;102765.66;;;7.15;94.01
818;BME280;391;51.052;6.954;2023-02-11T07:57:24;102770.13;;;6.95;94.23
818;BME280;391;51.052;6.954;2023-02-11T07:59:27;102772.06;;;6.97;94.41
818;BME280;391;51.052;6.954;2023-02-11T08:01:31;102752.16;;;6.74;94.56
818;BME280;391;51.052;6.954;2023-02-11T08:03:36;102775.41;;;6.96;94.90
818;BME280;391;51.052;6.954;2023-02-11T08:05:40;102773.66;;;7.07;94.70
818;BME280;391;51.052;6.954;2023-02-11T08:07:45;102781.41;;;6.95;94.97
818;BME280;391;51.052;6.954;2023-02-11T08:09:48;102778.97;;;7.08;95.20
818;BME280;391;51.052;6.954;2023-02-11T08:11:51;102775.78;;;7.01;95.31
818;BME280;391;51.052;6.954;2023-02-11T08:13:55;102776.41;;;6.86;95.92
818;BME280;391;51.052;6.954;2023-02-11T08:15:59;102774.66;;;6.97;95.91
818;BME280;391;51.052;6.954;2023-02-11T08:18:02;102773.97;;;7.00;95.92
818;BME280;391;51.052;6.954;2023-02-11T08:20:08;102771.28;;;6.98;95.87
818;BME280;391;51.052;6.954;2023-02-11T08:22:12;102731.31;;;6.73;96.06
818;BME280;391;51.052;6.954;2023-02-11T08:24:15;102768.19;;;6.80;96.22
818;BME280;391;51.052;6.954;2023-02-11T08:26:20;102771.69;;;6.81;96.67
818;BME280;391;51.052;6.954;2023-02-11T08:28:24;102767.41;;;6.81;97.21
818;BME280;391;51.052;6.954;2023-02-11T08:30:28;102763.31;;;6.73;97.64
818;BME280;391;51.052;6.954;2023-02-11T08:32:33;102764.88;;;6.71;98.21
818;BME280;391;51.052;6.954;2023-02-11T08:34:36;102777.09;;;6.84;98.43
818;BME280;391;51.052;6.954;2023-02-11T08:36:41;102668.34;;;6.41;97.59
818;BME280;391;51.052;6.954;2023-02-11T08:38:46;102780.06;;;7.12;97.37
818;BME280;391;51.052;6.954;2023-02-11T08:40:49;102769.00;;;7.03;97.00
818;BME280;391;51.052;6.954;2023-02-11T08:42:53;102779.38;;;7.03;97.18
818;BME280;391;51.052;6.954;2023-02-11T08:44:56;102782.50;;;6.87;97.52
818;BME280;391;51.052;6.954;2023-02-11T08:47:00;102780.06;;;7.00;98.06
818;BME280;391;51.052;6.954;2023-02-11T08:49:03;102788.22;;;7.05;97.72
818;BME280;391;51.052;6.954;2023-02-11T08:51:08;102779.63;;;7.06;97.76
818;BME280;391;51.052;6.954;2023-02-11T08:53:13;102781.06;;;7.02;97.45
818;BME280;391;51.052;6.954;2023-02-11T08:55:17;102789.81;;;6.81;98.12
818;BME280;391;51.052;6.954;2023-02-11T08:57:20;102791.88;;;6.85;98.89
818;BME280;391;51.052;6.954;2023-02-11T08:59:23;102799.97;;;6.89;99.01
818;BME280;391;51.052;6.954;2023-02-11T09:01:28;102803.94;;;6.96;98.84
818;BME280;391;51.052;6.954;2023-02-11T09:03:32;102811.97;;;6.99;98.61
818;BME280;391;51.052;6.954;2023-02-11T09:05:39;102816.59;;;7.03;98.43
818;BME280;391;51.052;6.954;2023-02-11T09:07:43;102807.75;;;6.89;98.12
818;BME280;391;51.052;6.954;2023-02-11T09:09:47;102811.16;;;7.33;100.00
818;BME280;391;51.052;6.954;2023-02-11T09:11:51;102824.69;;;7.76;100.00
818;BME280;391;51.052;6.954;2023-02-11T09:13:58;102829.91;;;7.64;97.78
818;BME280;391;51.052;6.954;2023-02-11T09:16:03;102832.69;;;7.44;97.25
818;BME280;391;51.052;6.954;2023-02-11T09:18:07;102821.53;;;7.45;97.35
818;BME280;391;51.052;6.954;2023-02-11T09:20:10;102811.81;;;7.31;97.36
818;BME280;391;51.052;6.954;2023-02-11T09:22:14;102829.72;;;7.28;97.19
818;BME280;391;51.052;6.954;2023-02-11T09:24:17;102827.84;;;7.37;97.08
818;BME280;391;51.052;6.954;2023-02-11T09:26:24;102824.81;;;7.42;97.26
818;BME280;391;51.052;6.954;2023-02-11T09:28:28;102831.13;;;7.46;96.66
818;BME280;391;51.052;6.954;2023-02-11T09:30:32;102835.19;;;7.42;96.51
818;BME280;391;51.052;6.954;2023-02-11T09:32:36;102833.06;;;7.37;96.94
818;BME280;391;51.052;6.954;2023-02-11T09:34:40;102824.34;;;7.48;97.00
818;BME280;391;51.052;6.954;2023-02-11T09:36:43;102829.91;;;7.53;96.68
818;BME280;391;51.052;6.954;2023-02-11T09:38:47;102829.31;;;7.45;96.43
818;BME280;391;51.052;6.954;2023-02-11T09:40:51;102830.69;;;7.52;96.78
818;BME280;391;51.052;6.954;2023-02-11T09:43:00;102833.81;;;7.47;96.62
818;BME280;391;51.052;6.954;2023-02-11T09:45:12;102826.13;;;7.37;96.92
818;BME280;391;51.052;6.954;2023-02-11T09:47:24;102835.28;;;7.44;97.07
818;BME280;391;51.052;6.954;2023-02-11T09:49:33;102838.47;;;7.40;96.54
818;BME280;391;51.052;6.954;2023-02-11T09:51:40;102842.94;;;7.31;97.07
818;BME280;391;51.052;6.954;2023-02-11T09:53:49;102847.25;;;7.30;97.22
818;BME280;391;51.052;6.954;2023-02-11T09:55:56;102813.38;;;7.17;97.23
818;BME280;391;51.052;6.954;2023-02-11T09:58:04;102846.03;;;7.49;97.23
818;BME280;391;51.052;6.954;2023-02-11T10:00:17;102852.00;;;7.36;96.91
818;BME280;391;51.052;6.954;2023-02-11T10:02:23;102822.41;;;7.22;97.34
818;BME280;391;51.052;6.954;2023-02-11T10:04:45;102853.38;;;7.42;97.16
818;BME280;391;51.052;6.954;2023-02-11T10:06:54;102857.41;;;7.39;96.96
818;BME280;391;51.052;6.954;2023-02-11T10:09:07;102860.34;;;7.43;97.29
818;BME280;391;51.052;6.954;2023-02-11T10:11:20;102821.63;;;7.23;97.03
818;BME280;391;51.052;6.954;2023-02-11T10:13:46;102837.97;;;7.22;97.40
818;BME280;391;51.052;6.954;2023-02-11T10:15:59;102859.72;;;7.24;97.46
818;BME280;391;51.052;6.954;2023-02-11T10:18:20;102841.91;;;7.17;97.95
818;BME280;391;51.052;6.954;2023-02-11T10:20:32;102870.03;;;7.34;97.42
818;BME280;391;51.052;6.954;2023-02-11T10:22:41;102871.72;;;7.34;97.54
818;BME280;391;51.052;6.954;2023-02-11T10:24:50;102867.66;;;7.37;97.82
818;BME280;391;51.052;6.954;2023-02-11T10:26:54;102872.63;;;7.34;97.47
818;BME280;391;51.052;6.954;2023-02-11T10:29:01;102870.63;;;7.42;97.49
818;BME280;391;51.052;6.954;2023-02-11T10:31:12;102873.22;;;7.42;97.37
818;BME280;391;51.052;6.954;2023-02-11T10:33:23;102864.28;;;7.27;97.62
818;BME280;391;51.052;6.954;2023-02-11T10:35:28;102823.69;;;6.94;98.42
818;BME280;391;51.052;6.954;2023-02-11T10:37:31;102857.03;;;7.23;98.37
818;BME280;391;51.052;6.954;2023-02-11T10:39:35;102874.88;;;7.30;98.12
818;BME280;391;51.052;6.954;2023-02-11T10:41:43;102869.78;;;7.20;98.26
818;BME280;391;51.052;6.954;2023-02-11T10:43:47;102879.94;;;7.28;98.41
818;BME280;391;51.052;6.954;2023-02-11T10:45:54;102876.66;;;7.19;98.62
818;BME280;391;51.052;6.954;2023-02-11T10:47:59;102853.06;;;7.16;98.47
818;BME280;391;51.052;6.954;2023-02-11T10:50:17;102877.78;;;7.23;98.59
818;BME280;391;51.052;6.954;2023-02-11T10:52:23;102838.63;;;7.08;98.65
818;BME280;391;51.052;6.954;2023-02-11T10:54:26;102865.59;;;7.22;98.78
818;BME280;391;51.052;6.954;2023-02-11T10:56:32;102871.47;;;7.31;98.76
818;BME280;391;51.052;6.954;2023-02-11T10:58:43;102864.06;;;7.47;97.97
818;BME280;391;51.052;6.954;2023-02-11T11:00:50;102864.53;;;7.53;98.13
818;BME280;391;51.052;6.954;2023-02-11T11:02:58;102852.69;;;7.45;97.63
818;BME280;391;51.052;6.954;2023-02-11T11:05:03;102844.88;;;7.33;97.74
818;BME280;391;51.052;6.954;2023-02-11T11:07:15;102868.78;;;7.41;97.74
818;BME280;391;51.052;6.954;2023-02-11T11:09:27;102877.16;;;7.37;97.68
818;BME280;391;51.052;6.954;2023-02-11T11:11:32;102878.19;;;7.39;98.30
818;BME280;391;51.052;6.954;2023-02-11T11:13:36;102869.25;;;7.47;98.16
818;BME280;391;51.052;6.954;2023-02-11T11:15:40;102866.09;;;7.39;98.09
818;BME280;391;51.052;6.954;2023-02-11T11:17:44;102881.91;;;7.42;98.30
818;BME280;391;51.052;6.954;2023-02-11T11:19:49;102882.81;;;7.43;98.00
818;BME280;391;51.052;6.954;2023-02-11T11:21:54;102879.09;;;7.51;97.87
818;BME280;391;51.052;6.954;2023-02-11T11:23:59;102876.19;;;7.58;97.80
818;BME280;391;51.052;6.954;2023-02-11T11:26:07;102874.03;;;7.53;97.40
818;BME280;391;51.052;6.954;2023-02-11T11:28:21;102865.06;;;7.37;97.85
818;BME280;391;51.052;6.954;2023-02-11T11:30:31;102855.03;;;7.42;98.07
818;BME280;391;51.052;6.954;2023-02-11T11:32:41;102863.28;;;7.48;98.04
818;BME280;391;51.052;6.954;2023-02-11T11:34:50;102861.59;;;7.60;97.99
818;BME280;391;51.052;6.954;2023-02-11T11:36:56;102864.88;;;7.58;97.52
818;BME280;391;51.052;6.954;2023-02-11T11:39:02;102853.94;;;7.62;97.51
818;BME280;391;51.052;6.954;2023-02-11T11:41:19;102875.50;;;7.72;97.18
818;BME280;391;51.052;6.954;2023-02-11T11:43:22;102833.38;;;7.53;97.22
818;BME280;391;51.052;6.954;2023-02-11T11:45:26;102870.19;;;7.59;97.06
818;BME280;391;51.052;6.954;2023-02-11T11:47:35;102877.41;;;7.63;98.05
818;BME280;391;51.052;6.954;2023-02-11T11:49:44;102843.75;;;7.53;97.50
818;BME280;391;51.052;6.954;2023-02-11T11:51:56;102861.28;;;7.79;97.37
818;BME280;391;51.052;6.954;2023-02-11T11:54:03;102848.97;;;7.65;96.98
818;BME280;391;51.052;6.954;2023-02-11T11:56:12;102861.97;;;7.65;97.06